createdAt,value
2019-02-21T00:00:56.852Z,9.44
2019-02-21T00:06:05.791Z,6.03
2019-02-21T00:11:15.061Z,6.78
2019-02-21T00:16:24.007Z,6.24
2019-02-21T00:21:32.890Z,7.22
2019-02-21T00:26:44.169Z,6.01
2019-02-21T00:31:50.333Z,7.35
2019-02-21T00:36:59.306Z,7.07
2019-02-21T00:42:08.173Z,6.19
2019-02-21T00:47:17.162Z,8.40
2019-02-21T00:52:26.078Z,7.24
2019-02-21T00:57:35.002Z,8.65
2019-02-21T01:02:43.827Z,6.50
2019-02-21T01:07:52.803Z,7.61
2019-02-21T01:13:01.650Z,8.18
2019-02-21T01:18:10.556Z,7.06
2019-02-21T01:23:19.406Z,7.55
2019-02-21T01:28:28.344Z,7.37
2019-02-21T01:33:37.223Z,7.95
2019-02-21T01:38:46.217Z,6.77
2019-02-21T01:43:55.087Z,7.99
2019-02-21T01:49:04.037Z,8.69
2019-02-21T01:54:12.875Z,7.57
2019-02-21T01:59:21.803Z,8.31
2019-02-21T02:04:31.078Z,6.36
2019-02-21T02:09:39.998Z,6.59
2019-02-21T02:14:48.903Z,7.85
2019-02-21T02:19:57.916Z,6.65
2019-02-21T02:25:06.806Z,6.77
2019-02-21T02:30:15.793Z,6.80
2019-02-21T02:35:24.707Z,6.71
2019-02-21T02:40:33.615Z,9.52
2019-02-21T02:45:42.458Z,7.09
2019-02-21T02:50:51.436Z,7.28
2019-02-21T02:56:00.240Z,9.69
2019-02-21T03:01:09.152Z,6.70
2019-02-21T03:06:18.102Z,7.64
2019-02-21T03:11:27.040Z,8.76
2019-02-21T03:16:35.931Z,6.96
2019-02-21T03:21:44.903Z,6.27
2019-02-21T03:26:53.761Z,7.24
2019-02-21T03:32:02.725Z,7.34
2019-02-21T03:37:11.913Z,5.21
2019-02-21T03:42:20.999Z,6.48
2019-02-21T03:47:29.818Z,7.88
2019-02-21T03:52:38.723Z,5.44
2019-02-21T03:57:47.606Z,7.12
2019-02-21T04:02:56.534Z,8.31
2019-02-21T04:08:05.393Z,6.73
2019-02-21T04:13:15.195Z,7.51
2019-02-21T04:18:21.270Z,10.81
2019-02-21T04:23:30.218Z,10.12
2019-02-21T04:28:39.083Z,8.18
2019-02-21T04:33:48.004Z,8.17
2019-02-21T04:38:56.904Z,6.68
2019-02-21T04:44:05.842Z,7.38
2019-02-21T04:49:15.108Z,7.35
2019-02-21T04:54:24.054Z,5.71
2019-02-21T04:59:32.911Z,8.96
2019-02-21T05:04:41.945Z,9.10
2019-02-21T05:09:58.074Z,8.21
2019-02-21T05:14:57.802Z,6.48
2019-02-21T05:20:06.682Z,7.71
2019-02-21T05:25:15.645Z,7.23
2019-02-21T05:30:24.531Z,6.87
2019-02-21T05:35:33.487Z,6.12
2019-02-21T05:40:42.379Z,7.68
2019-02-21T05:45:51.378Z,6.77
2019-02-21T05:51:00.226Z,5.69
2019-02-21T05:56:09.263Z,6.86
2019-02-21T06:01:18.008Z,6.97
2019-02-21T06:06:27.016Z,6.97
2019-02-21T06:11:35.891Z,7.30
2019-02-21T06:16:44.841Z,7.30
2019-02-21T06:21:53.714Z,6.88
2019-02-21T06:27:02.690Z,7.48
2019-02-21T06:32:14.232Z,10.30
2019-02-21T06:37:20.078Z,6.58
2019-02-21T06:42:28.995Z,8.02
2019-02-21T06:47:37.943Z,8.48
2019-02-21T06:52:46.843Z,6.48
2019-02-21T06:57:55.775Z,9.38
2019-02-21T07:03:14.988Z,8.94
2019-02-21T07:08:13.303Z,8.76
2019-02-21T07:13:26.658Z,8.49
2019-02-21T07:18:31.554Z,7.38
2019-02-21T07:23:43.564Z,9.90
2019-02-21T07:28:49.446Z,7.87
2019-02-21T07:33:58.295Z,9.58
2019-02-21T07:39:16.832Z,8.44
2019-02-21T07:44:15.683Z,7.40
2019-02-21T07:49:25.769Z,10.06
2019-02-21T07:54:33.114Z,8.51
2019-02-21T07:59:42.137Z,11.76
2019-02-21T08:04:51.023Z,9.65
2019-02-21T08:10:00.320Z,10.49
2019-02-21T08:15:11.759Z,10.08
2019-02-21T08:20:17.590Z,9.92
2019-02-21T08:25:26.867Z,10.13
2019-02-21T08:30:35.835Z,8.58
2019-02-21T08:35:44.752Z,9.63
2019-02-21T08:40:53.703Z,9.15
2019-02-21T08:46:02.598Z,10.22
2019-02-21T08:51:11.562Z,10.41
2019-02-21T08:56:20.476Z,9.82
2019-02-21T09:01:27.965Z,8.57
2019-02-21T09:06:36.823Z,9.93
2019-02-21T09:11:45.852Z,10.09
2019-02-21T09:16:54.750Z,8.45
2019-02-21T09:22:06.340Z,9.16
2019-02-21T09:27:05.184Z,8.78
2019-02-21T09:32:14.080Z,11.05
2019-02-21T09:37:22.951Z,11.39
2019-02-21T09:42:31.936Z,9.72
2019-02-21T09:47:40.810Z,10.91
2019-02-21T09:52:49.777Z,11.49
2019-02-21T09:57:58.691Z,9.69
2019-02-21T10:03:07.645Z,9.24
2019-02-21T10:08:16.516Z,11.04
2019-02-21T10:13:25.530Z,11.78
2019-02-21T10:18:34.451Z,11.46
2019-02-21T10:23:43.417Z,9.29
2019-02-21T10:28:52.327Z,11.56
2019-02-21T10:34:01.296Z,9.00
2019-02-21T10:39:10.256Z,9.05
2019-02-21T10:44:19.182Z,9.99
2019-02-21T10:49:28.077Z,9.37
2019-02-21T10:54:37.087Z,8.64
2019-02-21T10:59:46.867Z,8.13
2019-02-21T11:04:55.155Z,9.47
2019-02-21T11:10:02.899Z,8.59
2019-02-21T11:15:11.908Z,8.68
2019-02-21T11:20:20.811Z,10.54
2019-02-21T11:25:30.186Z,10.23
2019-02-21T11:30:39.087Z,10.01
2019-02-21T11:35:48.054Z,8.82
2019-02-21T11:40:56.941Z,10.96
2019-02-21T11:46:05.876Z,9.06
2019-02-21T11:51:15.164Z,9.85
2019-02-21T11:56:24.284Z,8.27
2019-02-21T12:01:33.142Z,7.88
2019-02-21T12:06:42.163Z,9.39
2019-02-21T12:11:51.064Z,9.16
2019-02-21T12:17:00.112Z,9.00
2019-02-21T12:22:09.071Z,9.36
2019-02-21T12:27:18.173Z,10.40
2019-02-21T12:32:27.230Z,10.72
2019-02-21T12:37:36.490Z,11.47
2019-02-21T12:42:45.491Z,9.35
2019-02-21T12:47:54.439Z,10.84
2019-02-21T12:53:09.743Z,10.51
2019-02-21T12:58:08.694Z,11.07
2019-02-21T13:03:17.572Z,8.84
2019-02-21T13:08:26.626Z,7.78
2019-02-21T13:13:35.688Z,9.42
2019-02-21T13:18:45.062Z,9.58
2019-02-21T13:23:53.963Z,10.12
2019-02-21T13:29:02.998Z,8.49
2019-02-21T13:34:35.400Z,9.34
2019-02-21T13:39:47.760Z,11.15
2019-02-21T13:44:30.751Z,8.53
2019-02-21T13:49:36.612Z,10.64
2019-02-21T13:54:49.089Z,9.14
2019-02-21T13:59:49.048Z,9.72
2019-02-21T14:04:53.093Z,8.53
2019-02-21T14:09:59.236Z,9.44
2019-02-21T14:15:00.545Z,8.91
2019-02-21T14:20:13.960Z,8.82
2019-02-21T14:25:10.261Z,8.52
2019-02-21T14:30:30.347Z,8.53
2019-02-21T14:35:16.294Z,9.81
2019-02-21T14:40:15.366Z,11.88
2019-02-21T14:45:24.398Z,11.12
2019-02-21T14:50:35.980Z,11.74
2019-02-21T14:55:42.147Z,9.50
2019-02-21T15:00:51.039Z,8.26
2019-02-21T15:05:59.953Z,10.23
2019-02-21T15:11:08.901Z,9.11
2019-02-21T15:16:17.985Z,8.08
2019-02-21T15:21:26.895Z,9.55
2019-02-21T15:26:35.766Z,9.47
2019-02-21T15:31:43.215Z,10.01
2019-02-21T15:36:52.163Z,12.24
2019-02-21T15:42:02.560Z,8.35
2019-02-21T15:47:01.483Z,9.96
2019-02-21T15:52:21.463Z,8.17
2019-02-21T15:57:18.861Z,8.96
2019-02-21T16:02:28.323Z,8.20
2019-02-21T16:07:37.581Z,8.29
2019-02-21T16:12:46.904Z,9.50
2019-02-21T16:17:57.068Z,9.62
2019-02-21T16:22:56.476Z,8.02
2019-02-21T16:28:04.854Z,8.38
2019-02-21T16:33:15.945Z,11.59
2019-02-21T16:38:14.899Z,9.38
2019-02-21T16:43:23.863Z,11.12
2019-02-21T16:48:32.759Z,10.18
2019-02-21T16:53:41.769Z,13.57
2019-02-21T16:58:50.801Z,15.03
2019-02-21T17:04:00.531Z,13.86
2019-02-21T17:09:09.502Z,10.97
2019-02-21T17:14:18.500Z,9.71
2019-02-21T17:19:27.471Z,11.48
2019-02-21T17:24:40.168Z,11.24
2019-02-21T17:29:39.010Z,10.06
2019-02-21T17:34:48.807Z,10.99
2019-02-21T17:39:56.747Z,11.39
2019-02-21T17:45:05.705Z,13.11
2019-02-21T17:50:13.240Z,13.75
2019-02-21T17:55:22.236Z,12.47
2019-02-21T18:00:31.596Z,14.44
2019-02-21T18:05:40.520Z,12.12
2019-02-21T18:10:49.448Z,13.35
2019-02-21T18:15:58.515Z,13.44
2019-02-21T18:21:08.375Z,12.22
2019-02-21T18:26:16.194Z,12.83
2019-02-21T18:31:25.137Z,14.02
2019-02-21T18:36:34.076Z,13.15
2019-02-21T18:41:42.991Z,13.47
2019-02-21T18:46:51.993Z,13.30
2019-02-21T18:52:00.945Z,13.71
2019-02-21T18:57:12.252Z,13.01
2019-02-21T19:02:19.855Z,13.01
2019-02-21T19:07:26.923Z,14.06
2019-02-21T19:12:35.868Z,11.52
2019-02-21T19:17:45.707Z,12.57
2019-02-21T19:22:54.581Z,13.92
2019-02-21T19:28:03.652Z,14.94
2019-02-21T19:33:11.669Z,19.84
2019-02-21T19:38:22.664Z,13.78
2019-02-21T19:43:21.468Z,14.12
2019-02-21T19:48:32.947Z,16.94
2019-02-21T19:53:31.851Z,18.34
2019-02-21T19:58:40.801Z,16.32
2019-02-21T20:03:49.772Z,17.35
2019-02-21T20:08:58.843Z,14.15
2019-02-21T20:14:07.864Z,15.74
2019-02-21T20:19:16.967Z,14.87
2019-02-21T20:24:26.005Z,15.69
2019-02-21T20:29:35.038Z,19.49
2019-02-21T20:34:53.465Z,18.97
2019-02-21T20:39:52.213Z,16.61
2019-02-21T20:45:01.165Z,18.65
2019-02-21T20:50:10.184Z,17.84
2019-02-21T20:55:19.193Z,16.27
2019-02-21T21:00:28.611Z,19.89
2019-02-21T21:05:37.657Z,17.36
2019-02-21T21:10:46.669Z,21.89
2019-02-21T21:16:00.685Z,23.57
2019-02-21T21:20:59.721Z,24.40
2019-02-21T21:26:11.594Z,24.45
2019-02-21T21:31:10.554Z,20.13
2019-02-21T21:36:19.540Z,18.52
2019-02-21T21:41:53.784Z,19.31
2019-02-21T21:46:46.085Z,19.34
2019-02-21T21:52:31.482Z,20.61
2019-02-21T21:56:43.226Z,21.68
2019-02-21T22:01:47.548Z,23.42
2019-02-21T22:06:54.322Z,25.54
2019-02-21T22:12:04.621Z,27.77
2019-02-21T22:17:03.501Z,26.41
2019-02-21T22:22:15.568Z,30.00
2019-02-21T22:27:13.238Z,29.52
2019-02-21T22:32:29.810Z,29.38
2019-02-21T22:37:28.748Z,30.50
2019-02-21T22:42:38.110Z,32.56
2019-02-21T22:47:48.274Z,32.92
2019-02-21T22:52:47.599Z,32.55
2019-02-21T22:57:56.466Z,35.29
2019-02-21T23:03:05.440Z,38.07
2019-02-21T23:08:15.676Z,32.36
2019-02-21T23:13:15.901Z,33.19
2019-02-21T23:18:21.638Z,32.85
2019-02-21T23:23:20.654Z,32.16
2019-02-21T23:28:30.862Z,30.40
2019-02-21T23:33:38.338Z,33.98
2019-02-21T23:38:47.256Z,33.63
2019-02-21T23:43:56.312Z,32.78
2019-02-21T23:49:05.318Z,33.45
2019-02-21T23:54:14.358Z,34.66
2019-02-21T23:59:23.319Z,36.40
